Pagina principale
METAR-TAF:

METAR-TAF

Aeroporti :

Aeroporto di Lamezia Terme

Lamezia Terme, Italia

latitudine: 38-54N, longitudine: 016-15E, altezza: 15 m

Osservazione

Il bollettino è stato emesso 25 minuti fa, alle 13:50 UTC
Vento 18 kt da ovest
Temperature 25°C
Umidità 57%
Pressione 1007 hPa
Visibilità 10 km o più

METAR: LICA 271350Z AUTO 28018KT 9999 FEW026/// 25/16 Q1007

Ora: 16:15 (14:15 UTC)

Previsione

Il bollettino è stato emesso 3 ore e 15 minuti fa, alle 11:00 UTC
Previsione valida dal 27 alle 12 UTC al 28 alle 12 UTC
Vento 15 kt da ovest
Visibilità 10 km o più
Nubi sparse ad un'altezza di 2000 ft
Temporaneamente
dal 27 alle 12 UTC al 27 alle 16 UTC
rovesci di pioggia
Temporaneamente
dal 28 alle 01 UTC al 28 alle 12 UTC
rovesci di pioggia

TAF: LICA 271100Z 2712/2812 27015KT 9999 SCT020 TEMPO 2712/2716 SHRA TEMPO 2801/2812 SHRA

Osservazioni e previsioni meteorologiche di più di 4000 aeroporti (messaggi METAR e TAF).

Le stazioni disponibili sono rappresentate dai dischi gialli e rossi sulla carta.

Puntare il mouse per vedere il nome della stazione.

Clicca sopra per visualizzare le osservazioni e previsioni meteorologiche.

Per cambiare la mappa : fare clic sui pulsanti verdi con una croce nera per ingrandire, il pulsante verde con un trattino per diminuire, o sulla freccia verde per le mappe adiacenti.


METAR-TAF: